createdAt,value
2019-05-03T00:00:56.778Z,10.30
2019-05-03T00:03:52.719Z,10.30
2019-05-03T00:06:42.655Z,10.30
2019-05-03T00:09:44.637Z,10.20
2019-05-03T00:13:24.301Z,10.20
2019-05-03T00:16:32.464Z,10.10
2019-05-03T00:19:52.767Z,10.10
2019-05-03T00:22:41.578Z,10.10
2019-05-03T00:25:34.079Z,10.10
2019-05-03T00:28:57.160Z,10.20
2019-05-03T00:31:57.352Z,10.10
2019-05-03T00:34:54.510Z,10.10
2019-05-03T00:37:47.669Z,10.10
2019-05-03T00:40:41.936Z,10.00
2019-05-03T00:43:32.402Z,10.00
2019-05-03T00:46:23.413Z,10.00
2019-05-03T00:49:25.749Z,10.00
2019-05-03T00:52:28.233Z,10.00
2019-05-03T00:55:25.086Z,10.10
2019-05-03T00:58:16.130Z,10.00
2019-05-03T01:01:27.584Z,10.00
2019-05-03T01:04:31.723Z,10.00
2019-05-03T01:07:42.297Z,10.00
2019-05-03T01:10:37.346Z,10.00
2019-05-03T01:13:37.946Z,10.10
2019-05-03T01:16:27.475Z,10.00
2019-05-03T01:19:31.983Z,10.00
2019-05-03T01:22:25.577Z,10.00
2019-05-03T01:25:32.041Z,10.10
2019-05-03T01:28:12.455Z,10.10
2019-05-03T01:31:12.751Z,10.00
2019-05-03T01:34:24.403Z,10.00
2019-05-03T01:37:12.908Z,10.00
2019-05-03T01:40:06.611Z,10.00
2019-05-03T01:42:58.779Z,10.00
2019-05-03T01:45:55.763Z,10.00
2019-05-03T01:49:19.055Z,10.00
2019-05-03T01:52:27.377Z,10.00
2019-05-03T01:55:55.722Z,10.00
2019-05-03T01:59:18.276Z,10.00
2019-05-03T02:02:41.989Z,10.00
2019-05-03T02:05:52.028Z,10.00
2019-05-03T02:08:48.171Z,9.90
2019-05-03T02:11:33.613Z,9.90
2019-05-03T02:14:33.742Z,9.90
2019-05-03T02:17:27.932Z,9.90
2019-05-03T02:20:19.401Z,9.80
2019-05-03T02:23:11.992Z,9.90
2019-05-03T02:26:03.264Z,10.00
2019-05-03T02:28:58.606Z,9.90
2019-05-03T02:31:56.926Z,9.90
2019-05-03T02:35:03.680Z,9.90
2019-05-03T02:37:53.906Z,9.90
2019-05-03T02:40:43.664Z,9.90
2019-05-03T02:44:06.449Z,9.90
2019-05-03T02:47:35.557Z,9.80
2019-05-03T02:50:36.244Z,9.80
2019-05-03T02:53:29.479Z,9.90
2019-05-03T02:56:37.212Z,9.80
2019-05-03T02:59:34.569Z,9.80
2019-05-03T03:02:28.508Z,9.80
2019-05-03T03:08:36.687Z,9.70
2019-05-03T03:11:56.027Z,9.80
2019-05-03T03:15:07.198Z,9.80
2019-05-03T03:17:59.699Z,9.80
2019-05-03T03:20:50.075Z,9.80
2019-05-03T03:24:02.567Z,9.80
2019-05-03T03:31:38.012Z,9.80
2019-05-03T03:34:28.506Z,9.90
2019-05-03T03:37:22.551Z,9.90
2019-05-03T03:40:16.930Z,9.80
2019-05-03T03:43:08.303Z,9.80
2019-05-03T03:46:00.942Z,9.80
2019-05-03T03:48:55.919Z,9.80
2019-05-03T03:55:15.852Z,9.90
2019-05-03T03:58:08.980Z,9.90
2019-05-03T04:01:26.698Z,9.90
2019-05-03T04:04:19.250Z,9.90
2019-05-03T04:07:15.759Z,9.80
2019-05-03T04:10:09.022Z,9.80
2019-05-03T04:13:05.476Z,9.80
2019-05-03T04:16:20.262Z,9.80
2019-05-03T04:19:11.829Z,9.70
2019-05-03T04:22:26.842Z,9.80
2019-05-03T04:25:27.710Z,9.80
2019-05-03T04:28:16.241Z,9.80
2019-05-03T04:31:10.034Z,9.80
2019-05-03T04:34:18.334Z,9.80
2019-05-03T04:37:41.720Z,9.80
2019-05-03T04:40:35.951Z,9.80
2019-05-03T04:46:58.281Z,9.70
2019-05-03T04:49:50.607Z,9.70
2019-05-03T04:52:49.976Z,9.70
2019-05-03T04:55:46.844Z,9.70
2019-05-03T04:58:36.491Z,9.60
2019-05-03T05:01:29.453Z,9.60
2019-05-03T05:04:25.417Z,9.60
2019-05-03T05:07:15.276Z,9.60
2019-05-03T05:10:02.141Z,9.70
2019-05-03T05:12:56.412Z,9.70
2019-05-03T05:15:45.975Z,9.80
2019-05-03T05:18:41.640Z,9.90
2019-05-03T05:21:41.447Z,9.90
2019-05-03T05:24:29.314Z,9.90
2019-05-03T05:27:25.664Z,10.00
2019-05-03T05:33:44.576Z,10.10
2019-05-03T05:36:34.769Z,10.10
2019-05-03T05:39:28.822Z,10.10
2019-05-03T05:42:17.249Z,10.00
2019-05-03T05:45:15.266Z,10.10
2019-05-03T05:48:37.468Z,10.00
2019-05-03T05:55:29.221Z,10.20
2019-05-03T05:58:34.837Z,10.10
2019-05-03T06:01:50.666Z,10.30
2019-05-03T06:04:38.452Z,10.30
2019-05-03T06:08:15.080Z,10.30
2019-05-03T06:14:17.676Z,10.20
2019-05-03T06:17:27.509Z,10.20
2019-05-03T06:23:45.110Z,9.90
2019-05-03T06:27:08.315Z,9.80
2019-05-03T06:30:32.768Z,9.70
2019-05-03T06:34:14.919Z,9.50
2019-05-03T06:36:51.524Z,9.30
2019-05-03T06:39:45.583Z,9.20
2019-05-03T06:42:52.449Z,9.10
2019-05-03T06:45:55.943Z,9.00
2019-05-03T06:48:44.581Z,9.00
2019-05-03T06:51:49.322Z,8.90
2019-05-03T06:54:55.432Z,8.90
2019-05-03T06:58:00.168Z,8.80
2019-05-03T07:00:57.842Z,8.90
2019-05-03T07:04:34.763Z,9.00
2019-05-03T07:07:35.420Z,9.20
2019-05-03T07:10:36.151Z,9.40
2019-05-03T07:13:39.263Z,9.40
2019-05-03T07:16:17.603Z,9.40
2019-05-03T07:19:14.603Z,9.50
2019-05-03T07:25:44.803Z,9.50
2019-05-03T07:28:46.240Z,9.50
2019-05-03T07:31:29.332Z,9.50
2019-05-03T07:34:45.269Z,9.50
2019-05-03T07:37:41.098Z,9.60
2019-05-03T07:40:28.498Z,9.70
2019-05-03T07:43:18.635Z,9.80
2019-05-03T07:46:07.636Z,9.80
2019-05-03T07:48:55.601Z,9.70
2019-05-03T07:51:47.227Z,9.60
2019-05-03T07:54:35.795Z,9.50
2019-05-03T07:57:45.265Z,9.50
2019-05-03T08:00:34.382Z,9.30
2019-05-03T08:03:26.232Z,9.30
2019-05-03T08:06:14.959Z,9.30
2019-05-03T08:09:04.941Z,9.30
2019-05-03T08:12:09.665Z,9.40
2019-05-03T08:15:05.371Z,9.60
2019-05-03T08:17:53.093Z,9.40
2019-05-03T08:20:41.153Z,9.50
2019-05-03T08:23:35.738Z,9.50
2019-05-03T08:26:25.083Z,9.40
2019-05-03T08:29:35.205Z,9.40
2019-05-03T08:32:56.980Z,9.60
2019-05-03T08:35:47.866Z,9.50
2019-05-03T08:38:36.479Z,9.50
2019-05-03T08:42:05.453Z,9.50
2019-05-03T08:52:25.295Z,9.90
2019-05-03T08:55:15.857Z,10.10
2019-05-03T08:58:05.253Z,10.60
2019-05-03T09:00:54.716Z,10.80
2019-05-03T09:04:00.343Z,11.30
2019-05-03T09:06:56.431Z,11.30
2019-05-03T09:10:02.884Z,11.40
2019-05-03T09:13:08.315Z,11.20
2019-05-03T09:15:57.006Z,11.20
2019-05-03T09:18:45.480Z,11.10
2019-05-03T09:24:43.041Z,11.00
2019-05-03T09:27:34.400Z,11.90
2019-05-03T09:30:24.982Z,12.00
2019-05-03T09:33:35.525Z,11.70
2019-05-03T09:36:34.537Z,11.80
2019-05-03T09:39:31.599Z,11.80
2019-05-03T09:42:35.259Z,12.30
2019-05-03T09:45:29.436Z,13.10
2019-05-03T09:48:17.256Z,12.50
2019-05-03T09:51:05.520Z,13.00
2019-05-03T09:53:58.212Z,12.90
2019-05-03T09:59:59.973Z,14.80
2019-05-03T10:02:51.918Z,14.10
2019-05-03T10:05:39.810Z,13.40
2019-05-03T10:08:27.448Z,13.20
2019-05-03T10:11:28.937Z,13.10
2019-05-03T10:14:17.091Z,13.20
2019-05-03T10:17:55.297Z,13.00
2019-05-03T10:20:44.507Z,12.80
2019-05-03T10:23:39.289Z,12.60
2019-05-03T10:26:27.495Z,12.90
2019-05-03T10:29:35.404Z,12.80
2019-05-03T10:32:44.988Z,13.10
2019-05-03T10:35:35.137Z,12.80
2019-05-03T10:38:24.650Z,12.10
2019-05-03T10:41:12.960Z,11.50
2019-05-03T10:44:02.367Z,11.80
2019-05-03T10:46:50.574Z,11.40
2019-05-03T10:49:42.384Z,11.50
2019-05-03T10:52:44.665Z,11.40
2019-05-03T11:02:48.100Z,11.60
2019-05-03T11:05:45.341Z,11.70
2019-05-03T11:08:32.789Z,11.90
2019-05-03T11:11:21.492Z,11.90
2019-05-03T11:14:09.958Z,11.70
2019-05-03T11:17:00.473Z,11.90
2019-05-03T11:19:47.483Z,12.30
2019-05-03T11:22:41.327Z,12.70
2019-05-03T11:25:30.668Z,12.80
2019-05-03T11:28:24.930Z,13.10
2019-05-03T11:31:30.253Z,13.60
2019-05-03T11:34:22.758Z,13.00
2019-05-03T11:37:48.437Z,12.80
2019-05-03T11:40:36.723Z,12.60
2019-05-03T11:43:24.923Z,12.40
2019-05-03T11:46:12.546Z,12.20
2019-05-03T11:49:00.828Z,12.30
2019-05-03T11:51:49.090Z,12.20
2019-05-03T11:54:37.146Z,12.20
2019-05-03T11:57:27.072Z,11.90
2019-05-03T12:00:19.803Z,12.00
2019-05-03T12:03:39.165Z,12.50
2019-05-03T12:06:05.899Z,12.80
2019-05-03T12:08:55.371Z,14.20
2019-05-03T12:11:43.572Z,14.50
2019-05-03T12:14:31.241Z,14.60
2019-05-03T12:17:29.763Z,15.30
2019-05-03T12:20:19.316Z,14.50
2019-05-03T12:23:07.482Z,14.60
2019-05-03T12:25:56.902Z,14.10
2019-05-03T12:28:45.067Z,14.80
2019-05-03T12:31:40.623Z,14.60
2019-05-03T12:34:27.829Z,13.50
2019-05-03T12:37:17.455Z,13.10
2019-05-03T12:40:05.720Z,12.60
2019-05-03T12:42:55.240Z,12.90
2019-05-03T12:45:45.933Z,13.00
2019-05-03T12:48:35.508Z,13.40
2019-05-03T12:51:25.526Z,13.20
2019-05-03T12:54:19.374Z,13.50
2019-05-03T12:57:15.483Z,13.80
2019-05-03T13:00:20.858Z,13.80
2019-05-03T13:03:12.679Z,13.80
2019-05-03T13:06:00.326Z,14.10
2019-05-03T13:08:48.393Z,14.50
2019-05-03T13:11:51.568Z,14.80
2019-05-03T13:14:27.960Z,16.70
2019-05-03T13:17:19.073Z,17.10
2019-05-03T13:20:13.156Z,17.30
2019-05-03T13:23:00.984Z,16.40
2019-05-03T13:25:48.980Z,16.60
2019-05-03T13:28:36.691Z,16.80
2019-05-03T13:31:25.673Z,18.20
2019-05-03T13:34:15.582Z,19.90
2019-05-03T13:37:05.271Z,18.70
2019-05-03T13:39:55.418Z,17.50
2019-05-03T13:42:56.049Z,16.60
2019-05-03T13:45:32.549Z,16.00
2019-05-03T13:48:23.566Z,16.10
2019-05-03T13:51:28.185Z,15.20
2019-05-03T13:54:57.246Z,15.00
2019-05-03T14:02:15.024Z,16.50
2019-05-03T14:04:56.544Z,18.30
2019-05-03T14:08:34.852Z,15.90
2019-05-03T14:14:56.437Z,15.60
2019-05-03T14:17:44.336Z,15.40
2019-05-03T14:20:55.097Z,14.50
2019-05-03T14:24:00.417Z,14.80
2019-05-03T14:26:54.999Z,14.90
2019-05-03T14:29:38.277Z,14.60
2019-05-03T14:32:35.913Z,14.30
2019-05-03T14:35:37.501Z,14.50
2019-05-03T14:38:25.532Z,14.70
2019-05-03T14:41:15.098Z,14.40
2019-05-03T14:44:04.998Z,14.20
2019-05-03T14:46:58.764Z,13.90
2019-05-03T14:49:43.081Z,14.10
2019-05-03T14:52:34.725Z,14.00
2019-05-03T14:55:31.478Z,13.90
2019-05-03T14:58:45.687Z,14.00
2019-05-03T15:02:01.223Z,13.80
2019-05-03T15:04:49.318Z,13.90
2019-05-03T15:07:37.042Z,13.80
2019-05-03T15:10:24.938Z,14.00
2019-05-03T15:13:13.359Z,14.10
2019-05-03T15:16:01.468Z,14.40
2019-05-03T15:18:49.212Z,14.60
2019-05-03T15:21:37.060Z,13.90
2019-05-03T15:24:25.299Z,14.30
2019-05-03T15:27:13.713Z,14.50
2019-05-03T15:30:01.558Z,14.70
2019-05-03T15:32:57.865Z,14.70
2019-05-03T15:35:39.407Z,14.70
2019-05-03T15:38:27.576Z,14.70
2019-05-03T15:41:17.434Z,14.90
2019-05-03T15:44:36.771Z,14.80
2019-05-03T15:47:28.974Z,14.60
2019-05-03T15:53:04.520Z,14.10
2019-05-03T15:55:52.237Z,13.80
2019-05-03T15:58:40.716Z,13.70
2019-05-03T16:01:29.192Z,13.60
2019-05-03T16:04:17.641Z,13.50
2019-05-03T16:07:06.018Z,13.50
2019-05-03T16:09:55.388Z,13.40
2019-05-03T16:12:44.951Z,13.40
2019-05-03T16:15:35.046Z,13.50
2019-05-03T16:18:24.349Z,13.40
2019-05-03T16:21:11.703Z,13.40
2019-05-03T16:23:59.460Z,13.40
2019-05-03T16:27:21.461Z,13.40
2019-05-03T16:30:27.451Z,13.40
2019-05-03T16:33:26.690Z,13.40
2019-05-03T16:36:05.602Z,13.30
2019-05-03T16:38:55.426Z,13.50
2019-05-03T16:41:44.707Z,13.50
2019-05-03T16:44:34.942Z,13.50
2019-05-03T16:47:24.824Z,13.60
2019-05-03T16:50:14.008Z,13.60
2019-05-03T16:53:01.215Z,14.10
2019-05-03T16:55:49.365Z,14.00
2019-05-03T16:58:36.967Z,13.90
2019-05-03T17:01:24.711Z,13.80
2019-05-03T17:04:34.586Z,13.50
2019-05-03T17:07:49.162Z,13.40
2019-05-03T17:10:40.683Z,13.20
2019-05-03T17:13:28.581Z,12.80
2019-05-03T17:16:17.124Z,12.70
2019-05-03T17:19:05.873Z,12.60
2019-05-03T17:21:54.802Z,12.50
2019-05-03T17:24:44.352Z,12.40
2019-05-03T17:27:35.658Z,12.40
2019-05-03T17:30:32.643Z,12.50
2019-05-03T17:33:13.196Z,12.50
2019-05-03T17:36:01.409Z,12.70
2019-05-03T17:38:50.983Z,12.60
2019-05-03T17:42:05.272Z,12.80
2019-05-03T17:44:54.579Z,12.80
2019-05-03T17:47:43.000Z,13.00
2019-05-03T17:50:31.145Z,13.10
2019-05-03T17:53:54.875Z,13.10
2019-05-03T17:57:01.866Z,12.80
2019-05-03T18:00:11.025Z,12.70
2019-05-03T18:03:04.764Z,12.60
2019-05-03T18:06:04.778Z,12.40
2019-05-03T18:09:11.800Z,12.30
2019-05-03T18:12:04.665Z,12.30
2019-05-03T18:14:52.977Z,12.10
2019-05-03T18:17:40.744Z,12.00
2019-05-03T18:20:28.873Z,11.90
2019-05-03T18:24:06.466Z,11.80
2019-05-03T18:28:02.487Z,11.70
2019-05-03T18:46:40.912Z,10.60
2019-05-03T18:57:20.963Z,10.40
2019-05-03T19:00:24.630Z,10.20
2019-05-03T19:03:15.720Z,10.00
2019-05-03T19:06:08.571Z,9.80
2019-05-03T19:09:14.568Z,9.70
2019-05-03T19:12:20.335Z,9.50
2019-05-03T19:15:09.264Z,9.20
2019-05-03T19:18:07.595Z,9.20
2019-05-03T19:20:55.468Z,9.10
2019-05-03T19:23:44.675Z,9.00
2019-05-03T19:26:32.886Z,8.70
2019-05-03T19:29:20.890Z,8.60
2019-05-03T19:33:31.709Z,8.50
2019-05-03T19:36:50.469Z,8.50
2019-05-03T19:39:38.935Z,8.40
2019-05-03T19:42:27.412Z,8.50
2019-05-03T19:45:15.636Z,8.40
2019-05-03T19:48:03.348Z,8.30
2019-05-03T19:50:51.328Z,8.40
2019-05-03T19:53:47.039Z,8.30
2019-05-03T19:56:50.464Z,8.20
2019-05-03T19:59:56.351Z,8.10
2019-05-03T20:06:22.395Z,8.30
2019-05-03T20:09:15.156Z,8.40
2019-05-03T20:12:04.767Z,8.60
2019-05-03T20:14:57.213Z,8.60
2019-05-03T20:17:56.495Z,8.50
2019-05-03T20:21:14.914Z,8.60
2019-05-03T20:24:07.893Z,8.40
2019-05-03T20:35:25.098Z,8.30
2019-05-03T20:38:29.807Z,8.40
2019-05-03T20:46:15.092Z,8.40
2019-05-03T20:49:20.369Z,8.50
2019-05-03T20:52:24.537Z,8.60
2019-05-03T20:55:25.567Z,8.50
2019-05-03T21:02:06.379Z,8.30
2019-05-03T21:09:54.755Z,8.30
2019-05-03T21:12:54.436Z,8.40
2019-05-03T21:16:12.207Z,8.40
2019-05-03T21:19:25.635Z,8.40
2019-05-03T21:22:39.922Z,8.40
2019-05-03T21:26:03.586Z,8.50
2019-05-03T21:31:44.526Z,8.50
2019-05-03T21:34:34.615Z,8.50
2019-05-03T21:37:45.269Z,8.60
2019-05-03T21:40:34.878Z,8.50
2019-05-03T21:43:28.438Z,8.60
2019-05-03T21:49:56.510Z,8.50
2019-05-03T21:52:57.667Z,8.60
2019-05-03T21:55:47.858Z,8.50
2019-05-03T21:58:37.019Z,8.60
2019-05-03T22:01:29.015Z,8.50
2019-05-03T22:04:18.333Z,8.40
2019-05-03T22:07:07.627Z,8.50
2019-05-03T22:09:57.584Z,8.40
2019-05-03T22:12:45.084Z,8.50
2019-05-03T22:15:50.952Z,8.50
2019-05-03T22:18:38.833Z,8.50
2019-05-03T22:21:45.275Z,8.60
2019-05-03T22:24:42.204Z,8.60
2019-05-03T22:27:36.541Z,8.60
2019-05-03T22:30:27.306Z,8.40
2019-05-03T22:33:15.499Z,8.40
2019-05-03T22:36:09.457Z,8.40
2019-05-03T22:39:00.739Z,8.40
2019-05-03T22:41:54.581Z,8.40
2019-05-03T22:44:44.716Z,8.50
2019-05-03T22:47:35.733Z,8.50
2019-05-03T22:50:25.375Z,8.50
2019-05-03T22:53:14.797Z,8.50
2019-05-03T22:56:07.364Z,8.50
2019-05-03T22:58:57.208Z,8.40
2019-05-03T23:01:45.767Z,8.30
2019-05-03T23:04:35.589Z,8.30
2019-05-03T23:07:27.856Z,8.30
2019-05-03T23:10:17.412Z,8.30
2019-05-03T23:13:05.757Z,8.30
2019-05-03T23:15:56.331Z,8.30
2019-05-03T23:18:44.510Z,8.30
2019-05-03T23:21:55.420Z,8.30
2019-05-03T23:24:43.375Z,8.40
2019-05-03T23:27:35.389Z,8.50
2019-05-03T23:30:24.775Z,8.30
2019-05-03T23:33:18.998Z,8.20
2019-05-03T23:36:07.207Z,8.30
2019-05-03T23:38:55.499Z,8.40
2019-05-03T23:41:45.231Z,8.30
2019-05-03T23:44:35.419Z,8.30
2019-05-03T23:47:34.646Z,8.20
2019-05-03T23:50:24.852Z,8.20
2019-05-03T23:53:20.296Z,8.20
2019-05-03T23:56:17.727Z,8.30
2019-05-03T23:59:10.706Z,8.30
